createdAt,value
2018-09-22T00:02:12.183Z,19.35
2018-09-22T00:04:43.361Z,19.36
2018-09-22T00:07:14.519Z,19.48
2018-09-22T00:09:45.592Z,19.22
2018-09-22T00:12:17.371Z,19.26
2018-09-22T00:14:48.510Z,19.21
2018-09-22T00:17:19.677Z,19.40
2018-09-22T00:19:51.324Z,19.35
2018-09-22T00:22:22.526Z,19.30
2018-09-22T00:24:53.649Z,19.35
2018-09-22T00:27:24.766Z,19.41
2018-09-22T00:29:56.418Z,19.41
2018-09-22T00:32:27.656Z,19.37
2018-09-22T00:34:58.733Z,19.21
2018-09-22T00:37:29.856Z,19.36
2018-09-22T00:40:01.785Z,19.28
2018-09-22T00:42:33.594Z,19.08
2018-09-22T00:45:05.246Z,19.14
2018-09-22T00:47:36.350Z,19.05
2018-09-22T00:50:07.442Z,19.22
2018-09-22T00:52:39.069Z,19.20
2018-09-22T00:55:11.285Z,19.20
2018-09-22T00:57:42.961Z,19.00
2018-09-22T01:00:15.482Z,18.82
2018-09-22T01:02:47.633Z,18.71
2018-09-22T01:05:20.315Z,18.51
2018-09-22T01:07:52.155Z,18.34
2018-09-22T01:10:23.735Z,18.32
2018-09-22T01:12:55.733Z,18.12
2018-09-22T01:15:27.252Z,18.19
2018-09-22T01:17:58.882Z,18.27
2018-09-22T01:20:30.642Z,18.34
2018-09-22T01:23:02.059Z,18.15
2018-09-22T01:25:33.270Z,18.23
2018-09-22T01:28:04.555Z,18.02
2018-09-22T01:30:35.642Z,17.96
2018-09-22T01:33:06.804Z,17.89
2018-09-22T01:35:38.260Z,17.99
2018-09-22T01:38:09.469Z,17.94
2018-09-22T01:40:40.550Z,17.89
2018-09-22T01:43:12.612Z,17.82
2018-09-22T01:45:43.788Z,17.84
2018-09-22T01:48:15.030Z,17.88
2018-09-22T01:50:46.138Z,17.83
2018-09-22T01:53:17.266Z,17.85
2018-09-22T01:55:48.674Z,17.86
2018-09-22T01:58:19.863Z,17.81
2018-09-22T02:00:51.034Z,17.84
2018-09-22T02:03:22.242Z,17.97
2018-09-22T02:05:54.153Z,17.76
2018-09-22T02:08:25.553Z,17.70
2018-09-22T02:10:56.664Z,17.72
2018-09-22T02:13:27.867Z,17.75
2018-09-22T02:15:59.273Z,17.68
2018-09-22T02:18:30.381Z,17.78
2018-09-22T02:21:01.504Z,17.81
2018-09-22T02:23:32.965Z,17.82
2018-09-22T02:26:04.042Z,17.94
2018-09-22T02:28:36.135Z,17.82
2018-09-22T02:31:07.760Z,17.93
2018-09-22T02:33:38.951Z,18.08
2018-09-22T02:36:11.791Z,18.11
2018-09-22T02:38:42.958Z,18.25
2018-09-22T02:41:14.964Z,18.26
2018-09-22T02:43:47.144Z,18.43
2018-09-22T02:46:18.410Z,18.26
2018-09-22T02:48:49.564Z,18.14
2018-09-22T02:51:21.607Z,18.27
2018-09-22T02:53:53.509Z,18.15
2018-09-22T02:56:26.448Z,18.08
2018-09-22T02:58:57.675Z,18.15
2018-09-22T03:01:29.617Z,18.22
2018-09-22T03:04:00.809Z,18.18
2018-09-22T03:06:32.911Z,18.11
2018-09-22T03:09:06.163Z,18.21
2018-09-22T03:11:37.306Z,18.23
2018-09-22T03:14:09.659Z,17.64
2018-09-22T03:16:41.311Z,18.22
2018-09-22T03:19:12.474Z,18.04
2018-09-22T03:21:43.620Z,18.09
2018-09-22T03:24:15.005Z,18.09
2018-09-22T03:26:46.142Z,18.13
2018-09-22T03:29:17.664Z,17.93
2018-09-22T03:31:48.766Z,17.73
2018-09-22T03:34:21.691Z,18.14
2018-09-22T03:36:53.482Z,17.90
2018-09-22T03:39:25.002Z,17.96
2018-09-22T03:41:57.732Z,18.08
2018-09-22T03:44:29.670Z,18.01
2018-09-22T03:47:01.556Z,18.16
2018-09-22T03:49:33.313Z,18.28
2018-09-22T03:52:04.410Z,18.15
2018-09-22T03:54:35.523Z,18.40
2018-09-22T03:57:09.305Z,18.21
2018-09-22T03:59:40.431Z,18.37
2018-09-22T04:02:12.245Z,18.31
2018-09-22T04:04:43.315Z,18.38
2018-09-22T04:07:15.329Z,18.53
2018-09-22T04:09:46.446Z,18.57
2018-09-22T04:12:18.466Z,18.41
2018-09-22T04:14:49.585Z,18.28
2018-09-22T04:17:20.710Z,18.08
2018-09-22T04:19:53.818Z,18.14
2018-09-22T04:22:24.964Z,17.94
2018-09-22T04:24:56.057Z,18.28
2018-09-22T04:27:27.199Z,18.26
2018-09-22T04:29:58.280Z,18.25
2018-09-22T04:32:29.357Z,18.22
2018-09-22T04:35:00.778Z,18.53
2018-09-22T04:37:32.486Z,18.44
2018-09-22T04:40:04.114Z,18.19
2018-09-22T04:42:35.353Z,18.19
2018-09-22T04:45:07.470Z,18.31
2018-09-22T04:47:39.471Z,18.14
2018-09-22T04:50:10.608Z,18.47
2018-09-22T04:52:41.719Z,18.43
2018-09-22T04:55:12.843Z,18.34
2018-09-22T04:57:44.038Z,18.39
2018-09-22T05:00:16.018Z,18.62
2018-09-22T05:02:47.659Z,18.61
2018-09-22T05:05:18.869Z,18.47
2018-09-22T05:07:50.237Z,18.41
2018-09-22T05:10:21.675Z,18.40
2018-09-22T05:12:52.872Z,18.45
2018-09-22T05:15:25.772Z,18.35
2018-09-22T05:17:56.981Z,18.42
2018-09-22T05:20:28.818Z,18.46
2018-09-22T05:23:00.303Z,18.43
2018-09-22T05:25:31.435Z,18.65
2018-09-22T05:28:03.256Z,19.01
2018-09-22T05:30:34.371Z,19.02
2018-09-22T05:33:06.595Z,18.80
2018-09-22T05:35:38.154Z,18.57
2018-09-22T05:38:09.722Z,18.58
2018-09-22T05:40:42.121Z,18.34
2018-09-22T05:43:13.663Z,18.43
2018-09-22T05:45:45.724Z,18.76
2018-09-22T05:48:17.332Z,18.76
2018-09-22T05:50:50.177Z,18.79
2018-09-22T05:53:23.866Z,18.77
2018-09-22T05:55:54.912Z,18.71
2018-09-22T05:58:27.994Z,18.80
2018-09-22T06:00:59.150Z,19.08
2018-09-22T06:03:30.558Z,19.23
2018-09-22T06:06:02.198Z,19.28
2018-09-22T06:08:34.049Z,19.21
2018-09-22T06:11:05.182Z,19.19
2018-09-22T06:13:36.250Z,19.21
2018-09-22T06:16:07.666Z,19.33
2018-09-22T06:18:39.696Z,19.35
2018-09-22T06:21:10.908Z,19.47
2018-09-22T06:23:42.070Z,19.56
2018-09-22T06:26:13.206Z,19.77
2018-09-22T06:28:44.400Z,19.94
2018-09-22T06:31:16.032Z,19.86
2018-09-22T06:33:47.239Z,19.86
2018-09-22T06:36:18.356Z,20.11
2018-09-22T06:38:49.992Z,20.16
2018-09-22T06:41:24.452Z,20.23
2018-09-22T06:43:56.663Z,20.36
2018-09-22T06:46:28.026Z,20.31
2018-09-22T06:48:59.417Z,20.54
2018-09-22T06:51:31.292Z,20.76
2018-09-22T06:54:02.549Z,20.77
2018-09-22T06:59:11.137Z,20.81
2018-09-22T07:01:44.723Z,21.17
2018-09-22T07:04:15.871Z,21.48
2018-09-22T07:06:46.957Z,21.64
2018-09-22T07:09:18.503Z,21.81
2018-09-22T07:11:50.359Z,21.81
2018-09-22T07:14:21.496Z,22.20
2018-09-22T07:16:52.623Z,22.32
2018-09-22T07:19:24.620Z,22.25
2018-09-22T07:22:02.214Z,22.19
2018-09-22T07:24:33.396Z,22.23
2018-09-22T07:27:06.706Z,22.37
2018-09-22T07:29:38.717Z,22.25
2018-09-22T07:32:10.609Z,22.29
2018-09-22T07:34:48.116Z,22.34
2018-09-22T07:37:21.102Z,22.49
2018-09-22T07:39:52.515Z,22.52
2018-09-22T07:42:23.707Z,22.55
2018-09-22T07:44:55.670Z,22.76
2018-09-22T07:47:26.825Z,23.00
2018-09-22T07:52:35.052Z,22.72
2018-09-22T07:55:08.591Z,22.77
2018-09-22T07:57:40.194Z,22.62
2018-09-22T08:00:13.854Z,22.56
2018-09-22T08:02:45.698Z,22.59
2018-09-22T08:05:21.821Z,22.70
2018-09-22T08:07:56.486Z,22.79
2018-09-22T08:10:27.672Z,22.80
2018-09-22T08:12:59.323Z,22.67
2018-09-22T08:15:31.257Z,23.01
2018-09-22T08:18:03.279Z,22.93
2018-09-22T08:20:34.978Z,22.89
2018-09-22T08:23:07.720Z,23.19
2018-09-22T08:25:39.111Z,22.86
2018-09-22T08:28:10.205Z,22.68
2018-09-22T08:30:41.958Z,22.77
2018-09-22T08:33:14.522Z,22.95
2018-09-22T08:35:47.721Z,23.11
2018-09-22T08:38:19.910Z,23.36
2018-09-22T08:40:51.220Z,23.52
2018-09-22T08:43:23.060Z,23.51
2018-09-22T08:45:55.233Z,23.52
2018-09-22T08:48:26.947Z,23.51
2018-09-22T08:51:00.575Z,23.81
2018-09-22T08:53:32.037Z,23.80
2018-09-22T08:56:03.235Z,23.82
2018-09-22T08:58:34.666Z,23.93
2018-09-22T09:01:06.495Z,24.08
2018-09-22T09:03:39.217Z,24.12
2018-09-22T09:06:10.481Z,24.18
2018-09-22T09:08:41.723Z,23.88
2018-09-22T09:11:15.801Z,23.68
2018-09-22T09:13:47.189Z,23.50
2018-09-22T09:16:18.533Z,23.22
2018-09-22T09:18:50.665Z,23.11
2018-09-22T09:21:22.649Z,23.66
2018-09-22T09:23:55.793Z,23.34
2018-09-22T09:26:26.961Z,23.00
2018-09-22T09:28:58.014Z,23.13
2018-09-22T09:31:29.157Z,23.27
2018-09-22T09:34:01.173Z,23.47
2018-09-22T09:36:32.909Z,23.69
2018-09-22T09:39:06.539Z,24.17
2018-09-22T09:41:37.690Z,24.45
2018-09-22T09:44:09.757Z,24.97
2018-09-22T09:46:42.308Z,25.29
2018-09-22T09:49:14.414Z,25.33
2018-09-22T09:51:46.322Z,25.53
2018-09-22T09:54:17.829Z,24.96
2018-09-22T09:56:51.983Z,24.91
2018-09-22T09:59:23.124Z,25.11
2018-09-22T10:01:57.305Z,25.33
2018-09-22T10:04:31.114Z,24.89
2018-09-22T10:07:02.519Z,25.17
2018-09-22T10:09:34.179Z,25.67
2018-09-22T10:12:05.790Z,26.16
2018-09-22T10:14:37.671Z,25.38
2018-09-22T10:17:11.784Z,25.86
2018-09-22T10:19:45.629Z,25.74
2018-09-22T10:22:21.348Z,25.84
2018-09-22T10:24:52.501Z,26.02
2018-09-22T10:27:23.557Z,26.01
2018-09-22T10:29:56.475Z,26.40
2018-09-22T10:32:33.701Z,26.52
2018-09-22T10:35:06.330Z,26.50
2018-09-22T10:37:39.584Z,26.62
2018-09-22T10:40:12.837Z,26.88
2018-09-22T10:42:44.050Z,26.95
2018-09-22T10:45:16.746Z,27.14
2018-09-22T10:47:48.681Z,27.39
2018-09-22T10:50:21.135Z,27.31
2018-09-22T10:52:52.365Z,28.20
2018-09-22T10:55:23.787Z,27.74
2018-09-22T10:57:55.895Z,27.78
2018-09-22T11:00:29.800Z,27.82
2018-09-22T11:05:40.511Z,27.14
2018-09-22T11:08:11.674Z,27.23
2018-09-22T11:10:43.999Z,27.36
2018-09-22T11:13:15.183Z,26.52
2018-09-22T11:15:47.316Z,27.01
2018-09-22T11:18:19.851Z,27.07
2018-09-22T11:20:51.018Z,26.91
2018-09-22T11:23:23.371Z,27.08
2018-09-22T11:25:54.579Z,27.29
2018-09-22T11:28:26.774Z,27.73
2018-09-22T11:30:58.562Z,27.78
2018-09-22T11:33:29.801Z,27.81
2018-09-22T11:36:01.203Z,27.74
2018-09-22T11:38:32.702Z,27.76
2018-09-22T11:41:05.656Z,28.08
2018-09-22T11:43:38.410Z,28.01
2018-09-22T11:46:10.922Z,28.20
2018-09-22T11:48:42.290Z,28.39
2018-09-22T11:51:13.417Z,28.34
2018-09-22T11:53:45.824Z,28.08
2018-09-22T11:56:18.349Z,28.07
2018-09-22T11:58:50.393Z,27.68
2018-09-22T12:01:24.106Z,27.81
2018-09-22T12:03:55.825Z,27.62
2018-09-22T12:06:27.541Z,27.95
2018-09-22T12:09:00.921Z,28.30
2018-09-22T12:11:33.273Z,27.76
2018-09-22T12:14:06.607Z,27.23
2018-09-22T12:16:38.148Z,27.00
2018-09-22T12:19:11.736Z,26.66
2018-09-22T12:21:43.648Z,26.66
2018-09-22T12:24:16.522Z,26.65
2018-09-22T12:26:49.279Z,27.26
2018-09-22T12:29:21.561Z,27.45
2018-09-22T12:31:52.703Z,27.05
2018-09-22T12:34:27.162Z,26.70
2018-09-22T12:36:58.280Z,26.23
2018-09-22T12:39:30.403Z,25.90
2018-09-22T12:42:01.552Z,26.16
2018-09-22T12:44:33.599Z,26.27
2018-09-22T12:47:05.034Z,25.95
2018-09-22T12:49:36.190Z,26.28
2018-09-22T12:52:08.210Z,26.52
2018-09-22T12:54:40.316Z,26.13
2018-09-22T12:57:11.420Z,26.20
2018-09-22T12:59:43.971Z,25.90
2018-09-22T13:02:15.719Z,25.20
2018-09-22T13:04:46.999Z,24.89
2018-09-22T13:07:20.419Z,25.31
2018-09-22T13:09:53.925Z,25.44
2018-09-22T13:12:25.078Z,25.78
2018-09-22T13:14:58.663Z,26.01
2018-09-22T13:17:31.332Z,26.67
2018-09-22T13:20:03.538Z,26.87
2018-09-22T13:22:36.147Z,26.24
2018-09-22T13:25:08.534Z,26.27
2018-09-22T13:27:39.654Z,26.84
2018-09-22T13:30:13.295Z,26.95
2018-09-22T13:32:45.331Z,27.17
2018-09-22T13:35:18.034Z,27.19
2018-09-22T13:37:49.745Z,27.03
2018-09-22T13:40:21.523Z,26.71
2018-09-22T13:42:53.971Z,26.14
2018-09-22T13:45:27.243Z,26.80
2018-09-22T13:50:56.709Z,26.88
2018-09-22T13:53:32.507Z,26.22
2018-09-22T13:56:07.768Z,25.21
2018-09-22T13:58:43.612Z,25.33
2018-09-22T14:01:28.026Z,25.32
2018-09-22T14:04:05.267Z,25.43
2018-09-22T14:06:37.608Z,25.44
2018-09-22T14:09:20.854Z,25.15
2018-09-22T14:11:54.109Z,25.36
2018-09-22T14:14:25.555Z,25.34
2018-09-22T14:16:59.079Z,25.26
2018-09-22T14:19:36.457Z,25.35
2018-09-22T14:22:08.249Z,26.05
2018-09-22T14:24:43.429Z,26.05
2018-09-22T14:27:14.634Z,26.14
2018-09-22T14:29:48.567Z,25.98
2018-09-22T14:32:21.371Z,25.85
2018-09-22T14:34:53.614Z,25.51
2018-09-22T14:37:28.306Z,25.37
2018-09-22T14:40:00.915Z,25.57
2018-09-22T14:42:33.557Z,25.82
2018-09-22T14:45:06.471Z,25.30
2018-09-22T14:47:37.614Z,25.24
2018-09-22T14:50:09.365Z,25.42
2018-09-22T14:52:40.490Z,25.57
2018-09-22T14:55:12.396Z,25.62
2018-09-22T14:57:43.574Z,25.36
2018-09-22T15:00:17.072Z,25.34
2018-09-22T15:02:48.231Z,25.44
2018-09-22T15:05:20.229Z,26.17
2018-09-22T15:07:54.063Z,26.34
2018-09-22T15:10:25.205Z,26.05
2018-09-22T15:12:59.220Z,25.93
2018-09-22T15:15:31.086Z,25.93
2018-09-22T15:18:02.511Z,25.29
2018-09-22T15:20:33.672Z,25.34
2018-09-22T15:23:05.409Z,25.30
2018-09-22T15:25:38.438Z,25.15
2018-09-22T15:28:11.563Z,25.02
2018-09-22T15:30:43.060Z,25.07
2018-09-22T15:33:15.011Z,25.26
2018-09-22T15:35:47.071Z,25.24
2018-09-22T15:38:20.547Z,24.60
2018-09-22T15:40:51.609Z,24.57
2018-09-22T15:43:23.897Z,25.00
2018-09-22T15:45:56.241Z,24.86
2018-09-22T15:48:28.361Z,24.47
2018-09-22T15:50:59.586Z,24.05
2018-09-22T15:53:31.038Z,24.42
2018-09-22T15:56:03.090Z,24.26
2018-09-22T15:58:35.802Z,24.34
2018-09-22T16:01:09.292Z,24.21
2018-09-22T16:03:41.891Z,24.04
2018-09-22T16:06:13.085Z,23.97
2018-09-22T16:08:44.908Z,23.91
2018-09-22T16:11:19.723Z,23.73
2018-09-22T16:13:50.905Z,23.83
2018-09-22T16:16:24.138Z,23.83
2018-09-22T16:18:56.543Z,23.81
2018-09-22T16:21:28.442Z,23.88
2018-09-22T16:23:59.674Z,24.17
2018-09-22T16:26:31.120Z,24.08
2018-09-22T16:29:03.124Z,23.76
2018-09-22T16:31:36.014Z,23.57
2018-09-22T16:34:08.106Z,23.27
2018-09-22T16:36:42.758Z,23.42
2018-09-22T16:39:15.287Z,23.25
2018-09-22T16:41:46.497Z,23.24
2018-09-22T16:44:17.595Z,23.52
2018-09-22T16:46:49.314Z,23.59
2018-09-22T16:49:22.620Z,23.65
2018-09-22T16:51:53.996Z,23.72
2018-09-22T16:54:25.083Z,23.69
2018-09-22T16:56:56.459Z,23.76
2018-09-22T16:59:31.507Z,23.86
2018-09-22T17:02:03.469Z,23.73
2018-09-22T17:04:34.886Z,23.65
2018-09-22T17:07:09.206Z,23.53
2018-09-22T17:09:42.164Z,23.59
2018-09-22T17:12:15.567Z,23.60
2018-09-22T17:14:47.975Z,23.77
2018-09-22T17:17:21.223Z,23.67
2018-09-22T17:19:54.325Z,23.81
2018-09-22T17:22:27.527Z,23.56
2018-09-22T17:24:58.635Z,23.50
2018-09-22T17:27:30.300Z,23.52
2018-09-22T17:30:02.311Z,23.23
2018-09-22T17:32:34.378Z,23.03
2018-09-22T17:35:12.213Z,22.90
2018-09-22T17:37:43.389Z,22.77
2018-09-22T17:40:15.512Z,22.75
2018-09-22T17:42:47.519Z,22.54
2018-09-22T17:45:23.492Z,22.47
2018-09-22T17:47:56.777Z,22.37
2018-09-22T17:50:29.518Z,22.22
2018-09-22T17:53:02.206Z,21.87
2018-09-22T17:55:33.379Z,21.69
2018-09-22T17:58:06.467Z,21.61
2018-09-22T18:00:39.367Z,21.58
2018-09-22T18:03:11.956Z,21.35
2018-09-22T18:05:44.558Z,21.31
2018-09-22T18:08:17.151Z,21.29
2018-09-22T18:10:48.460Z,21.19
2018-09-22T18:13:19.710Z,21.13
2018-09-22T18:15:50.883Z,21.28
2018-09-22T18:18:23.195Z,21.41
2018-09-22T18:21:04.576Z,21.23
2018-09-22T18:23:35.815Z,21.26
2018-09-22T18:26:12.206Z,21.26
2018-09-22T18:28:43.429Z,21.16
2018-09-22T18:31:16.240Z,21.27
2018-09-22T18:33:49.194Z,21.41
2018-09-22T18:36:22.038Z,21.40
2018-09-22T18:38:53.380Z,21.36
2018-09-22T18:41:25.474Z,21.39
2018-09-22T18:43:58.516Z,21.36
2018-09-22T18:46:33.019Z,21.51
2018-09-22T18:49:05.287Z,21.39
2018-09-22T18:51:36.788Z,21.18
2018-09-22T18:54:09.779Z,21.19
2018-09-22T18:56:40.987Z,21.41
2018-09-22T18:59:12.459Z,21.55
2018-09-22T19:01:44.398Z,21.51
2018-09-22T19:04:15.650Z,21.62
2018-09-22T19:06:47.578Z,21.85
2018-09-22T19:09:20.794Z,21.84
2018-09-22T19:11:56.613Z,21.73
2018-09-22T19:15:04.287Z,21.88
2018-09-22T19:17:42.619Z,21.76
2018-09-22T19:20:23.419Z,21.94
2018-09-22T19:22:58.622Z,21.88
2018-09-22T19:25:34.488Z,22.08
2018-09-22T19:28:12.017Z,22.30
2018-09-22T19:30:50.308Z,22.07
2018-09-22T19:33:57.520Z,22.14
2018-09-22T19:36:35.340Z,21.59
2018-09-22T19:39:17.746Z,21.77
2018-09-22T19:41:56.562Z,21.79
2018-09-22T19:44:37.420Z,21.82
2018-09-22T19:48:15.839Z,21.97
2018-09-22T19:50:58.432Z,22.07
2018-09-22T19:53:33.450Z,21.88
2018-09-22T19:56:11.467Z,21.80
2018-09-22T19:58:44.607Z,21.91
2018-09-22T20:01:19.437Z,21.81
2018-09-22T20:03:53.109Z,21.78
2018-09-22T20:06:26.447Z,21.78
2018-09-22T20:08:58.590Z,21.76
2018-09-22T20:11:30.397Z,21.71
2018-09-22T20:14:05.499Z,22.01
2018-09-22T20:16:41.189Z,21.79
2018-09-22T20:19:14.362Z,21.75
2018-09-22T20:21:46.455Z,21.75
2018-09-22T20:24:19.100Z,21.69
2018-09-22T20:26:51.561Z,21.79
2018-09-22T20:29:25.580Z,21.80
2018-09-22T20:32:04.342Z,21.74
2018-09-22T20:34:46.039Z,21.62
2018-09-22T20:37:21.807Z,21.52
2018-09-22T20:39:56.526Z,21.73
2018-09-22T20:42:29.668Z,21.65
2018-09-22T20:45:00.865Z,21.52
2018-09-22T20:47:35.250Z,21.55
2018-09-22T20:50:09.331Z,21.46
2018-09-22T20:52:42.026Z,21.61
2018-09-22T20:55:15.778Z,21.65
2018-09-22T20:57:50.528Z,21.47
2018-09-22T21:00:24.174Z,20.78
2018-09-22T21:02:55.296Z,21.49
2018-09-22T21:05:29.658Z,21.77
2018-09-22T21:08:03.374Z,21.66
2018-09-22T21:10:35.409Z,21.83
2018-09-22T21:13:06.594Z,21.37
2018-09-22T21:15:37.825Z,21.35
2018-09-22T21:18:11.718Z,21.37
2018-09-22T21:20:44.015Z,21.45
2018-09-22T21:23:15.524Z,21.51
2018-09-22T21:25:46.769Z,21.20
2018-09-22T21:28:18.742Z,21.51
2018-09-22T21:30:50.681Z,21.56
2018-09-22T21:33:24.151Z,21.52
2018-09-22T21:35:56.696Z,21.39
2018-09-22T21:38:30.339Z,21.31
2018-09-22T21:41:02.849Z,21.59
2018-09-22T21:43:34.876Z,21.71
2018-09-22T21:46:07.053Z,21.56
2018-09-22T21:48:39.467Z,21.55
2018-09-22T21:51:10.871Z,21.65
2018-09-22T21:53:43.227Z,21.82
2018-09-22T21:56:15.875Z,21.83
2018-09-22T21:58:47.142Z,21.78
2018-09-22T22:01:23.450Z,21.48
2018-09-22T22:03:54.848Z,21.42
2018-09-22T22:06:33.936Z,21.35
2018-09-22T22:09:07.980Z,21.23
2018-09-22T22:11:40.486Z,21.43
2018-09-22T22:14:13.866Z,21.67
2018-09-22T22:16:44.995Z,21.96
2018-09-22T22:19:16.224Z,21.92
2018-09-22T22:21:48.486Z,21.86
2018-09-22T22:24:19.656Z,22.03
2018-09-22T22:26:53.211Z,21.99
2018-09-22T22:29:24.371Z,22.01
2018-09-22T22:31:54.740Z,21.83
2018-09-22T22:34:26.967Z,21.63
2018-09-22T22:36:59.028Z,21.76
2018-09-22T22:39:30.850Z,22.02
2018-09-22T22:42:03.636Z,21.72
2018-09-22T22:44:34.796Z,21.25
2018-09-22T22:47:05.881Z,21.60
2018-09-22T22:49:37.401Z,21.57
2018-09-22T22:52:13.469Z,21.77
2018-09-22T22:54:46.197Z,21.64
2018-09-22T22:57:18.248Z,21.38
2018-09-22T22:59:50.787Z,21.27
2018-09-22T23:02:22.329Z,21.18
2018-09-22T23:04:54.447Z,21.19
2018-09-22T23:07:28.761Z,21.46
2018-09-22T23:10:00.525Z,21.15
2018-09-22T23:12:32.578Z,21.14
2018-09-22T23:15:07.927Z,21.08
2018-09-22T23:17:39.082Z,21.27
2018-09-22T23:20:10.548Z,21.29
2018-09-22T23:22:45.361Z,21.38
2018-09-22T23:25:17.167Z,21.54
2018-09-22T23:27:50.403Z,21.52
2018-09-22T23:30:24.318Z,21.16
2018-09-22T23:32:55.778Z,20.99
2018-09-22T23:35:31.587Z,20.98
2018-09-22T23:38:02.707Z,20.85
2018-09-22T23:40:36.417Z,20.70
2018-09-22T23:43:08.702Z,20.65
2018-09-22T23:45:39.930Z,20.71
2018-09-22T23:48:11.455Z,20.52
2018-09-22T23:50:41.870Z,20.52
2018-09-22T23:53:14.012Z,20.50
2018-09-22T23:55:47.322Z,20.67
2018-09-22T23:58:18.511Z,20.59
